Time;durP1;ratioP1;P1;durP2;ratioP2;P2;SDS_P1;SDS_P2;PMS_P1;PMS_P2;Temp;Humidity;BMP_temperature;BMP_pressure;BME280_temperature;BME280_humidity;BME280_pressure;Samples;Min_cycle;Max_cycle;Signal;HPM_P1;HPM_P2
2022/01/22 00:00:04;;;;;;;65.33;53.63;;;;;;;;;;5033304;28;20022;-76
2022/01/22 00:02:30;;;;;;;57.35;51.45;;;;;;;;;;5037315;28;20051;-76
2022/01/22 00:04:55;;;;;;;60.40;53.30;;;;;;;;;;5046526;28;20014;-77
2022/01/22 00:07:20;;;;;;;56.50;50.93;;;;;;;;;;5019100;28;20021;-78
2022/01/22 00:09:52;;;;;;;56.70;50.77;;;;;;;;;;5025381;28;20021;-77
2022/01/22 00:12:45;;;;;;;57.42;51.20;;;;;;;;;;5022014;28;20430;-77
2022/01/22 00:15:13;;;;;;;57.05;51.05;;;;;;;;;;5012871;28;20045;-77
2022/01/22 00:17:38;;;;;;;57.08;51.10;;;;;;;;;;5020194;28;20013;-78
2022/01/22 00:20:04;;;;;;;59.90;52.67;;;;;;;;;;5024304;28;20032;-77
2022/01/22 00:22:32;;;;;;;57.28;51.38;;;;;;;;;;5027619;28;20074;-77
2022/01/22 00:25:00;;;;;;;56.67;51.03;;;;;;;;;;5021819;28;20500;-78
2022/01/22 00:27:25;;;;;;;58.83;51.83;;;;;;;;;;5040315;28;20458;-78
2022/01/22 00:29:50;;;;;;;99.27;63.10;;;;;;;;;;5017121;28;20044;-78
2022/01/22 00:32:16;;;;;;;59.50;51.07;;;;;;;;;;5017931;28;20121;-78
2022/01/22 00:34:41;;;;;;;56.43;50.73;;;;;;;;;;5026190;28;20031;-78
2022/01/22 00:37:06;;;;;;;56.03;50.37;;;;;;;;;;5036037;28;19997;-77
2022/01/22 00:39:33;;;;;;;55.63;49.73;;;;;;;;;;5036557;28;20471;-80
2022/01/22 00:41:59;;;;;;;55.90;50.53;;;;;;;;;;5038394;28;20013;-80
2022/01/22 00:44:25;;;;;;;64.27;53.97;;;;;;;;;;5029947;28;20021;-78
2022/01/22 00:46:50;;;;;;;56.10;50.60;;;;;;;;;;5028018;28;20033;-77
2022/01/22 00:49:16;;;;;;;53.65;48.28;;;;;;;;;;5030874;28;20025;-78
2022/01/22 00:51:41;;;;;;;55.33;49.63;;;;;;;;;;5025329;28;20120;-78
2022/01/22 00:54:06;;;;;;;59.10;51.33;;;;;;;;;;5026487;28;20029;-79
2022/01/22 00:56:31;;;;;;;54.37;49.10;;;;;;;;;;5039899;28;20378;-77
2022/01/22 00:58:57;;;;;;;54.63;49.10;;;;;;;;;;5028762;28;20033;-78
2022/01/22 01:01:25;;;;;;;57.10;51.17;;;;;;;;;;5028539;28;20021;-78
2022/01/22 01:03:50;;;;;;;55.25;49.60;;;;;;;;;;5027906;28;20024;-79
2022/01/22 01:06:16;;;;;;;59.17;52.30;;;;;;;;;;5023501;28;20113;-80
2022/01/22 01:08:42;;;;;;;55.53;49.97;;;;;;;;;;5026417;28;20073;-80
2022/01/22 01:11:07;;;;;;;;;;;;;;;;;;5029684;28;20017;-80
2022/01/22 01:13:39;;;;;;;53.30;48.30;;;;;;;;;;5024565;28;19912;-80
2022/01/22 01:16:18;;;;;;;54.30;49.03;;;;;;;;;;5016504;28;20271;-79
2022/01/22 01:32:34;;;;;;;57.92;51.88;;;;;;;;;;5040245;28;20059;-78
2022/01/22 01:35:00;;;;;;;54.53;49.10;;;;;;;;;;5014398;28;20017;-79
2022/01/22 01:37:25;;;;;;;53.80;48.72;;;;;;;;;;5017975;28;20021;-79
2022/01/22 01:39:55;;;;;;;55.00;49.80;;;;;;;;;;5017510;28;20032;-80
2022/01/22 01:42:36;;;;;;;55.55;50.05;;;;;;;;;;5016124;28;20426;-79
2022/01/22 01:45:04;;;;;;;54.17;49.03;;;;;;;;;;5029943;28;20183;-80
2022/01/22 01:47:29;;;;;;;53.72;48.92;;;;;;;;;;5026321;28;20109;-80
2022/01/22 01:49:54;;;;;;;54.17;48.87;;;;;;;;;;5017005;28;20065;-80
2022/01/22 01:52:28;;;;;;;55.17;49.63;;;;;;;;;;5033338;28;20040;-79
2022/01/22 01:55:09;;;;;;;55.55;49.80;;;;;;;;;;5013804;28;20060;-79
2022/01/22 01:57:40;;;;;;;56.17;49.65;;;;;;;;;;5034085;28;20091;-80
2022/01/22 02:00:10;;;;;;;54.97;49.47;;;;;;;;;;5019215;28;20500;-79
2022/01/22 02:02:36;;;;;;;58.03;51.88;;;;;;;;;;5014519;28;20029;-80
2022/01/22 02:05:02;;;;;;;55.55;50.03;;;;;;;;;;5010025;28;20026;-78
2022/01/22 02:07:27;;;;;;;55.15;49.90;;;;;;;;;;5020818;28;20083;-79
2022/01/22 02:09:53;;;;;;;54.27;49.00;;;;;;;;;;5021456;28;20493;-78
2022/01/22 02:25:39;;;;;;;55.25;50.00;;;;;;;;;;5025534;28;20060;-80
2022/01/22 02:28:04;;;;;;;55.80;50.13;;;;;;;;;;5013558;28;20407;-78
2022/01/22 02:30:33;;;;;;;55.93;50.27;;;;;;;;;;5032214;28;20033;-81
2022/01/22 02:36:07;;;;;;;56.40;50.47;;;;;;;;;;4997823;28;20505;-79
2022/01/22 02:39:00;;;;;;;56.28;51.00;;;;;;;;;;5011599;28;20094;-79
2022/01/22 02:41:20;;;;;;;55.83;49.92;;;;;;;;;;5039176;28;20041;-80
2022/01/22 02:43:47;;;;;;;55.72;49.78;;;;;;;;;;5024710;28;20037;-80
2022/01/22 02:46:15;;;;;;;55.90;50.22;;;;;;;;;;5025788;28;20037;-78
2022/01/22 02:48:40;;;;;;;55.05;49.42;;;;;;;;;;5058438;28;20001;-79
2022/01/22 02:51:05;;;;;;;55.73;49.87;;;;;;;;;;5042615;28;20130;-80
2022/01/22 02:53:31;;;;;;;55.80;49.97;;;;;;;;;;5056834;28;20049;-79
2022/01/22 02:55:57;;;;;;;54.83;49.73;;;;;;;;;;5052445;28;20063;-80
2022/01/22 02:58:22;;;;;;;55.10;49.70;;;;;;;;;;5024134;28;20462;-80
2022/01/22 03:00:47;;;;;;;56.03;50.07;;;;;;;;;;5020071;28;20025;-79
2022/01/22 03:03:14;;;;;;;55.60;50.37;;;;;;;;;;5015163;28;20498;-79
2022/01/22 03:05:39;;;;;;;54.85;49.78;;;;;;;;;;5016931;28;20108;-80
2022/01/22 03:08:08;;;;;;;56.53;50.70;;;;;;;;;;5018613;28;20053;-80
2022/01/22 03:10:33;;;;;;;55.35;49.80;;;;;;;;;;5019604;28;20081;-80
2022/01/22 03:27:18;;;;;;;56.97;50.93;;;;;;;;;;5036349;28;20053;-78
2022/01/22 03:28:52;;;;;;;55.38;49.92;;;;;;;;;;5039324;28;20776;-79
2022/01/22 03:31:17;;;;;;;57.75;51.65;;;;;;;;;;5023899;28;20048;-78
2022/01/22 03:33:42;;;;;;;56.10;50.40;;;;;;;;;;5022340;28;20025;-80
2022/01/22 03:36:08;;;;;;;57.87;50.67;;;;;;;;;;5017889;28;20029;-78
2022/01/22 03:38:33;;;;;;;55.47;50.17;;;;;;;;;;5020024;28;20080;-79
2022/01/22 03:40:58;;;;;;;56.90;51.07;;;;;;;;;;5020229;28;20067;-79
2022/01/22 03:43:24;;;;;;;55.13;49.87;;;;;;;;;;5018923;28;20032;-79
2022/01/22 03:45:49;;;;;;;61.03;51.60;;;;;;;;;;5016439;28;20013;-78
2022/01/22 03:48:14;;;;;;;57.87;51.80;;;;;;;;;;5013310;28;20045;-78
2022/01/22 03:50:39;;;;;;;57.87;52.20;;;;;;;;;;5031958;28;20013;-78
2022/01/22 03:53:05;;;;;;;55.97;50.50;;;;;;;;;;5034732;28;20432;-79
2022/01/22 03:55:46;;;;;;;62.90;52.33;;;;;;;;;;5014317;28;20013;-78
2022/01/22 03:58:12;;;;;;;57.47;51.53;;;;;;;;;;5017392;28;20076;-79
2022/01/22 04:00:37;;;;;;;58.30;52.43;;;;;;;;;;5036327;28;20017;-79
2022/01/22 04:08:24;;;;;;;57.97;51.95;;;;;;;;;;5031188;28;20013;-78
2022/01/22 04:10:49;;;;;;;59.27;53.10;;;;;;;;;;5017512;28;20489;-79
2022/01/22 04:13:17;;;;;;;57.23;51.33;;;;;;;;;;5017267;28;20033;-78
2022/01/22 04:15:43;;;;;;;59.58;53.28;;;;;;;;;;5010215;28;20026;-78
2022/01/22 04:28:45;;;;;;;57.93;52.17;;;;;;;;;;5035526;28;20033;-79
2022/01/22 04:31:10;;;;;;;57.80;51.23;;;;;;;;;;5032059;28;20044;-79
2022/01/22 04:33:36;;;;;;;59.57;53.13;;;;;;;;;;5037283;28;20400;-79
2022/01/22 04:36:01;;;;;;;61.30;53.63;;;;;;;;;;5016158;28;20075;-79
2022/01/22 04:38:26;;;;;;;57.80;51.70;;;;;;;;;;5017753;28;20522;-78
2022/01/22 04:40:52;;;;;;;58.57;52.23;;;;;;;;;;5019128;28;20075;-78
2022/01/22 04:43:17;;;;;;;58.77;52.37;;;;;;;;;;5018023;28;20028;-78
2022/01/22 04:45:53;;;;;;;57.75;51.65;;;;;;;;;;5012979;28;20017;-79
2022/01/22 04:48:42;;;;;;;57.63;51.67;;;;;;;;;;5016050;28;20033;-78
2022/01/22 04:56:35;;;;;;;58.58;52.65;;;;;;;;;;5044222;28;20067;-78
2022/01/22 04:59:02;;;;;;;57.40;51.40;;;;;;;;;;5035549;28;20014;-79
2022/01/22 05:01:27;;;;;;;57.92;51.15;;;;;;;;;;5049593;28;20013;-78
2022/01/22 05:03:52;;;;;;;62.47;52.57;;;;;;;;;;5026767;28;20026;-77
2022/01/22 05:06:17;;;;;;;59.67;52.03;;;;;;;;;;5018574;28;20193;-76
2022/01/22 05:08:43;;;;;;;57.20;51.47;;;;;;;;;;5020212;28;20487;-79
2022/01/22 05:11:08;;;;;;;57.77;51.33;;;;;;;;;;5020817;28;20029;-76
2022/01/22 05:13:33;;;;;;;57.43;51.13;;;;;;;;;;5018189;28;20025;-79
2022/01/22 05:15:59;;;;;;;58.87;52.50;;;;;;;;;;5031660;28;20281;-78
2022/01/22 05:18:24;;;;;;;60.40;53.30;;;;;;;;;;5033332;28;20018;-76
2022/01/22 05:20:58;;;;;;;61.40;52.73;;;;;;;;;;5018275;28;20048;-79
2022/01/22 05:23:25;;;;;;;58.35;52.35;;;;;;;;;;5012272;28;20372;-80
2022/01/22 05:25:56;;;;;;;59.22;52.28;;;;;;;;;;5027264;28;20387;-79
2022/01/22 05:31:09;;;;;;;58.25;51.75;;;;;;;;;;5034268;28;20447;-78
2022/01/22 05:36:57;;;;;;;60.10;52.03;;;;;;;;;;5017580;28;20021;-78
2022/01/22 05:39:07;;;;;;;57.92;51.70;;;;;;;;;;5074975;28;20032;-81
2022/01/22 05:41:32;;;;;;;57.40;51.28;;;;;;;;;;5059639;28;20024;-85
2022/01/22 05:43:57;;;;;;;56.67;50.77;;;;;;;;;;5057477;28;20017;-82
2022/01/22 05:46:22;;;;;;;58.38;52.28;;;;;;;;;;5048763;28;20013;-82
2022/01/22 05:48:48;;;;;;;60.70;51.40;;;;;;;;;;5055702;28;20058;-82
2022/01/22 05:51:15;;;;;;;56.60;50.77;;;;;;;;;;5053887;28;20017;-83
2022/01/22 06:01:15;;;;;;;60.03;52.67;;;;;;;;;;5051602;28;20086;-81
2022/01/22 06:03:40;;;;;;;57.20;51.07;;;;;;;;;;5070268;28;20025;-84
2022/01/22 06:06:05;;;;;;;57.57;51.50;;;;;;;;;;5047369;28;20044;-84
2022/01/22 06:08:33;;;;;;;57.63;51.77;;;;;;;;;;5049442;28;20063;-83
2022/01/22 06:11:06;;;;;;;56.50;50.80;;;;;;;;;;5047261;28;20108;-85
2022/01/22 06:13:43;;;;;;;56.80;50.85;;;;;;;;;;5051207;28;20146;-84
2022/01/22 06:16:08;;;;;;;56.70;50.90;;;;;;;;;;5058570;28;20080;-83
2022/01/22 06:18:33;;;;;;;56.40;50.63;;;;;;;;;;5057742;28;20051;-85
2022/01/22 06:20:59;;;;;;;58.40;52.50;;;;;;;;;;5060539;28;20139;-85
2022/01/22 06:23:24;;;;;;;59.97;53.47;;;;;;;;;;5057160;28;20025;-80
2022/01/22 06:25:49;;;;;;;62.42;52.05;;;;;;;;;;5060365;28;20044;-82
2022/01/22 06:28:14;;;;;;;59.67;53.38;;;;;;;;;;5053037;28;20025;-80
2022/01/22 06:30:39;;;;;;;63.22;54.85;;;;;;;;;;5055132;28;20040;-84
2022/01/22 06:33:04;;;;;;;59.37;53.20;;;;;;;;;;5038907;28;20254;-84
2022/01/22 06:35:29;;;;;;;60.92;53.63;;;;;;;;;;5030318;28;20028;-82
2022/01/22 06:37:59;;;;;;;60.60;53.80;;;;;;;;;;5043100;28;20124;-82
2022/01/22 06:42:49;;;;;;;67.07;54.63;;;;;;;;;;5067281;28;20052;-82
2022/01/22 06:45:14;;;;;;;66.80;55.85;;;;;;;;;;5060047;28;20016;-80
2022/01/22 06:47:40;;;;;;;64.10;54.23;;;;;;;;;;5059096;28;20025;-79
2022/01/22 06:50:05;;;;;;;63.90;54.40;;;;;;;;;;5060214;28;20044;-81
2022/01/22 06:52:31;;;;;;;60.93;54.13;;;;;;;;;;5057529;28;20033;-81
2022/01/22 06:54:56;;;;;;;64.20;55.20;;;;;;;;;;5057499;28;20025;-83
2022/01/22 06:57:21;;;;;;;64.20;55.43;;;;;;;;;;5055193;28;20274;-80
2022/01/22 06:59:47;;;;;;;67.43;56.10;;;;;;;;;;5059085;28;20005;-80
2022/01/22 07:02:13;;;;;;;66.87;55.00;;;;;;;;;;5061567;28;20013;-79
2022/01/22 07:04:38;;;;;;;;;;;;;;;;;;5056682;28;20369;-82
2022/01/22 07:07:04;;;;;;;66.55;53.92;;;;;;;;;;5064844;28;20016;-81
2022/01/22 07:09:30;;;;;;;62.25;53.72;;;;;;;;;;5036780;28;20633;-84
2022/01/22 07:11:55;;;;;;;64.50;54.73;;;;;;;;;;5041255;28;20545;-83
2022/01/22 07:14:20;;;;;;;65.57;55.08;;;;;;;;;;5044672;28;20096;-82
2022/01/22 07:16:45;;;;;;;71.97;56.40;;;;;;;;;;5045650;28;20019;-84
2022/01/22 07:19:17;;;;;;;60.97;53.27;;;;;;;;;;5055827;28;20025;-85
2022/01/22 07:21:42;;;;;;;64.28;54.22;;;;;;;;;;5056061;28;20017;-84
2022/01/22 07:24:23;;;;;;;62.70;54.13;;;;;;;;;;5054650;28;20017;-84
2022/01/22 07:26:48;;;;;;;64.65;54.28;;;;;;;;;;5049674;28;20017;-85
2022/01/22 07:29:13;;;;;;;59.63;53.53;;;;;;;;;;5043122;28;20059;-84
2022/01/22 07:31:39;;;;;;;61.00;53.60;;;;;;;;;;5048675;28;20024;-84
2022/01/22 07:34:04;;;;;;;63.77;54.97;;;;;;;;;;5062742;28;20021;-83
2022/01/22 07:36:29;;;;;;;66.50;54.00;;;;;;;;;;5062641;28;20021;-80
2022/01/22 07:38:55;;;;;;;61.03;53.08;;;;;;;;;;5060001;28;20012;-83
2022/01/22 07:41:20;;;;;;;61.30;54.45;;;;;;;;;;5058558;28;20101;-83
2022/01/22 07:43:47;;;;;;;61.40;54.73;;;;;;;;;;5042228;28;20021;-80
2022/01/22 07:46:12;;;;;;;63.95;55.13;;;;;;;;;;5041886;28;20017;-80
2022/01/22 07:48:38;;;;;;;70.87;57.00;;;;;;;;;;5054046;28;20073;-82
2022/01/22 07:51:03;;;;;;;63.77;54.73;;;;;;;;;;5060957;28;20040;-80
2022/01/22 07:53:29;;;;;;;67.75;55.67;;;;;;;;;;5059680;28;20097;-81
2022/01/22 07:55:54;;;;;;;72.83;57.63;;;;;;;;;;5061229;28;20035;-81
2022/01/22 07:58:19;;;;;;;67.73;55.83;;;;;;;;;;5046096;28;20036;-82
2022/01/22 08:00:44;;;;;;;66.13;55.03;;;;;;;;;;5043364;28;20388;-82
2022/01/22 08:03:09;;;;;;;64.53;55.17;;;;;;;;;;5061881;28;20476;-83
2022/01/22 08:05:35;;;;;;;72.80;56.80;;;;;;;;;;5043933;28;20028;-83
2022/01/22 08:08:00;;;;;;;67.07;55.70;;;;;;;;;;5039795;28;20462;-84
2022/01/22 08:10:25;;;;;;;62.47;55.27;;;;;;;;;;5038035;28;20021;-83
2022/01/22 08:12:51;;;;;;;61.67;54.67;;;;;;;;;;5044117;28;20029;-83
2022/01/22 08:15:17;;;;;;;65.97;55.57;;;;;;;;;;5056025;28;20021;-82
2022/01/22 08:17:42;;;;;;;65.35;54.67;;;;;;;;;;5057874;28;20009;-80
2022/01/22 08:20:08;;;;;;;69.23;55.37;;;;;;;;;;5057472;28;20033;-78
2022/01/22 08:22:33;;;;;;;62.80;54.33;;;;;;;;;;5058091;28;20021;-80
2022/01/22 08:25:00;;;;;;;64.60;54.43;;;;;;;;;;5062851;28;20036;-82
2022/01/22 08:29:54;;;;;;;62.65;53.67;;;;;;;;;;5073940;28;20025;-81
2022/01/22 08:37:39;;;;;;;56.97;51.40;;;;;;;;;;5064683;28;20027;-81
2022/01/22 08:40:05;;;;;;;57.50;51.03;;;;;;;;;;5038645;28;20077;-83
2022/01/22 08:42:31;;;;;;;57.60;51.75;;;;;;;;;;5065961;28;20032;-79
2022/01/22 08:44:56;;;;;;;55.97;50.67;;;;;;;;;;5056817;28;20391;-80
2022/01/22 08:47:21;;;;;;;57.05;51.22;;;;;;;;;;5054873;28;20078;-81
2022/01/22 08:49:47;;;;;;;57.20;51.23;;;;;;;;;;5050539;28;20017;-84
2022/01/22 08:52:14;;;;;;;56.60;50.70;;;;;;;;;;5051816;28;20059;-82
2022/01/22 08:54:40;;;;;;;61.13;52.55;;;;;;;;;;5048502;28;20017;-83
2022/01/22 08:57:05;;;;;;;61.33;52.53;;;;;;;;;;5044281;28;20020;-84
2022/01/22 08:59:31;;;;;;;56.73;50.83;;;;;;;;;;5041086;28;20013;-84
2022/01/22 09:01:58;;;;;;;57.87;51.70;;;;;;;;;;5043439;28;20013;-82
2022/01/22 09:04:23;;;;;;;57.47;51.25;;;;;;;;;;5042857;28;20027;-86
2022/01/22 09:06:48;;;;;;;67.77;54.53;;;;;;;;;;5039632;28;20037;-84
2022/01/22 09:09:14;;;;;;;58.13;51.83;;;;;;;;;;5034485;28;20514;-87
2022/01/22 09:11:41;;;;;;;57.70;51.73;;;;;;;;;;5045047;28;20060;-86
2022/01/22 09:14:46;;;;;;;58.15;52.10;;;;;;;;;;5051387;28;20028;-87
2022/01/22 09:17:11;;;;;;;57.72;51.92;;;;;;;;;;5057838;28;20036;-86
2022/01/22 09:19:36;;;;;;;58.50;52.38;;;;;;;;;;5039312;28;20025;-86
2022/01/22 09:22:03;;;;;;;56.13;50.77;;;;;;;;;;5041940;28;20744;-85
2022/01/22 09:24:28;;;;;;;57.22;51.15;;;;;;;;;;5052948;28;20031;-86
2022/01/22 09:26:53;;;;;;;66.93;55.57;;;;;;;;;;5041401;28;20048;-85
2022/01/22 09:29:18;;;;;;;56.47;50.83;;;;;;;;;;5041984;28;20101;-87
2022/01/22 09:31:46;;;;;;;55.20;50.00;;;;;;;;;;5052472;28;20021;-84
2022/01/22 09:34:11;;;;;;;56.78;50.83;;;;;;;;;;5053643;28;20032;-84
2022/01/22 09:36:36;;;;;;;61.17;53.47;;;;;;;;;;5056788;28;20041;-82
2022/01/22 09:39:03;;;;;;;58.23;52.23;;;;;;;;;;5055260;28;20033;-86
2022/01/22 09:41:28;;;;;;;;;;;;;;;;;;5056680;28;20018;-83
2022/01/22 09:43:54;;;;;;;74.75;54.20;;;;;;;;;;5057174;28;19908;-86
2022/01/22 09:46:20;;;;;;;75.57;54.92;;;;;;;;;;5059182;28;20020;-86
2022/01/22 09:48:46;;;;;;;74.65;55.17;;;;;;;;;;5052983;28;20009;-87
2022/01/22 09:51:12;;;;;;;66.20;53.45;;;;;;;;;;5059381;28;20017;-86
2022/01/22 09:53:39;;;;;;;83.13;56.87;;;;;;;;;;5057578;28;20096;-84
2022/01/22 09:56:04;;;;;;;68.05;53.90;;;;;;;;;;5058213;28;20029;-85
2022/01/22 09:58:30;;;;;;;70.50;54.00;;;;;;;;;;5056134;28;20096;-81
2022/01/22 10:01:15;;;;;;;56.13;50.63;;;;;;;;;;5044268;28;20091;-87
2022/01/22 10:03:40;;;;;;;59.53;53.00;;;;;;;;;;5034400;28;20866;-85
2022/01/22 10:06:15;;;;;;;56.83;50.80;;;;;;;;;;5045378;28;20457;-81
2022/01/22 10:08:41;;;;;;;57.90;51.55;;;;;;;;;;5044206;28;20013;-86
2022/01/22 10:11:15;;;;;;;58.53;52.20;;;;;;;;;;5040482;28;20154;-86
2022/01/22 10:13:41;;;;;;;58.55;52.35;;;;;;;;;;5053840;28;20016;-85
2022/01/22 10:16:06;;;;;;;;;;;;;;;;;;5058646;28;20009;-84
2022/01/22 10:18:31;;;;;;;57.97;51.63;;;;;;;;;;5053470;28;20159;-85
2022/01/22 10:21:06;;;;;;;58.00;51.00;;;;;;;;;;5052216;28;20088;-87
2022/01/22 10:23:38;;;;;;;58.97;52.50;;;;;;;;;;5055116;28;20029;-84
2022/01/22 10:26:13;;;;;;;61.15;53.28;;;;;;;;;;5054039;28;20029;-86
2022/01/22 10:28:42;;;;;;;56.40;50.70;;;;;;;;;;5051395;28;20040;-85
2022/01/22 10:31:27;;;;;;;58.88;52.67;;;;;;;;;;5051964;28;20216;-85
2022/01/22 10:34:11;;;;;;;58.50;52.17;;;;;;;;;;5053708;28;20017;-86
2022/01/22 10:36:37;;;;;;;55.92;50.38;;;;;;;;;;5048515;28;20025;-87
2022/01/22 10:39:06;;;;;;;57.37;51.43;;;;;;;;;;5044575;28;20109;-88
2022/01/22 10:41:34;;;;;;;55.75;50.17;;;;;;;;;;5036721;28;20266;-90
2022/01/22 10:44:08;;;;;;;57.75;51.63;;;;;;;;;;5041044;28;20044;-89
2022/01/22 10:46:51;;;;;;;65.00;55.30;;;;;;;;;;5039002;28;20066;-86
2022/01/22 10:49:19;;;;;;;61.95;52.70;;;;;;;;;;5034427;28;20052;-89
2022/01/22 10:51:53;;;;;;;66.70;53.92;;;;;;;;;;5039469;28;20025;-81
2022/01/22 10:54:22;;;;;;;63.45;54.72;;;;;;;;;;5039904;28;20032;-80
2022/01/22 10:56:47;;;;;;;72.32;55.22;;;;;;;;;;5034186;28;20036;-83
2022/01/22 10:59:14;;;;;;;87.10;58.77;;;;;;;;;;5036884;28;20021;-90
2022/01/22 11:01:56;;;;;;;64.78;54.40;;;;;;;;;;5040191;28;20365;-85
2022/01/22 11:04:22;;;;;;;67.00;55.28;;;;;;;;;;5044972;28;20024;-86
2022/01/22 11:06:59;;;;;;;82.50;57.33;;;;;;;;;;5040414;28;20077;-85
2022/01/22 11:09:26;;;;;;;60.08;53.53;;;;;;;;;;5038557;28;20056;-85
2022/01/22 11:11:52;;;;;;;60.28;53.80;;;;;;;;;;5042728;28;20017;-85
2022/01/22 11:14:18;;;;;;;60.38;52.55;;;;;;;;;;5042658;28;20051;-86
2022/01/22 11:16:45;;;;;;;64.55;54.15;;;;;;;;;;5031705;28;20104;-82
2022/01/22 11:19:11;;;;;;;57.58;51.72;;;;;;;;;;5047359;28;20021;-86
2022/01/22 11:21:40;;;;;;;59.00;52.75;;;;;;;;;;5049416;28;20016;-85
2022/01/22 11:24:06;;;;;;;57.42;51.60;;;;;;;;;;5054670;28;20115;-86
2022/01/22 11:26:31;;;;;;;58.80;52.00;;;;;;;;;;5054203;28;20036;-86
2022/01/22 11:28:58;;;;;;;68.53;53.60;;;;;;;;;;5040533;28;20029;-86
2022/01/22 11:31:24;;;;;;;57.08;51.40;;;;;;;;;;5048067;28;20534;-86
2022/01/22 11:33:51;;;;;;;56.40;50.78;;;;;;;;;;5054579;28;20412;-85
2022/01/22 11:36:19;;;;;;;55.83;50.38;;;;;;;;;;5051280;28;20033;-85
2022/01/22 11:38:52;;;;;;;56.38;50.72;;;;;;;;;;5040917;28;20013;-88
2022/01/22 11:41:22;;;;;;;60.28;51.97;;;;;;;;;;5065221;23;20042;-89
2022/01/22 11:44:12;;;;;;;55.10;49.80;;;;;;;;;;5040360;28;20065;-88
2022/01/22 11:46:43;;;;;;;56.20;50.42;;;;;;;;;;5048860;28;20120;-87
2022/01/22 11:49:15;;;;;;;57.58;51.72;;;;;;;;;;5039516;28;20022;-87
2022/01/22 11:51:45;;;;;;;57.70;51.60;;;;;;;;;;5035888;28;20021;-89
2022/01/22 11:54:11;;;;;;;55.35;49.97;;;;;;;;;;5039935;28;20116;-88
2022/01/22 11:56:42;;;;;;;55.45;49.88;;;;;;;;;;5033667;28;20045;-88
2022/01/22 11:59:14;;;;;;;58.25;52.15;;;;;;;;;;5025815;28;20034;-89
2022/01/22 12:01:39;;;;;;;57.20;51.38;;;;;;;;;;5040304;28;20029;-88
2022/01/22 12:04:09;;;;;;;57.55;51.78;;;;;;;;;;5042373;28;20025;-87
2022/01/22 12:06:35;;;;;;;56.80;51.20;;;;;;;;;;5045190;28;20275;-89
2022/01/22 12:09:06;;;;;;;55.60;50.38;;;;;;;;;;5051455;28;19997;-87
2022/01/22 12:14:38;;;;;;;60.85;54.05;;;;;;;;;;5054364;28;20020;-88
2022/01/22 12:17:04;;;;;;;59.53;53.13;;;;;;;;;;5052149;28;20088;-87
2022/01/22 12:19:51;;;;;;;59.28;52.80;;;;;;;;;;5051969;28;20105;-86
2022/01/22 12:22:36;;;;;;;60.17;53.78;;;;;;;;;;5052819;28;20013;-88
2022/01/22 12:25:08;;;;;;;58.30;52.28;;;;;;;;;;5040280;28;20081;-87
2022/01/22 12:27:41;;;;;;;58.63;52.40;;;;;;;;;;5056819;28;20025;-88
2022/01/22 12:30:06;;;;;;;57.28;51.58;;;;;;;;;;5044592;28;20010;-86
2022/01/22 12:32:42;;;;;;;58.70;52.53;;;;;;;;;;5055871;28;20020;-88
2022/01/22 12:35:09;;;;;;;56.45;50.83;;;;;;;;;;5056821;28;20017;-88
2022/01/22 12:37:39;;;;;;;58.88;52.63;;;;;;;;;;5056593;28;20017;-85
2022/01/22 12:40:06;;;;;;;57.42;51.45;;;;;;;;;;5054039;28;20033;-87
2022/01/22 12:42:51;;;;;;;59.50;52.92;;;;;;;;;;5062723;22;20063;-79
2022/01/22 12:45:17;;;;;;;57.75;51.88;;;;;;;;;;5057269;28;20394;-80
2022/01/22 12:47:47;;;;;;;61.88;53.13;;;;;;;;;;5053310;28;20100;-80
2022/01/22 12:50:12;;;;;;;58.72;52.47;;;;;;;;;;5052834;28;20028;-80
2022/01/22 12:52:40;;;;;;;59.70;53.17;;;;;;;;;;5055461;28;20019;-79
2022/01/22 12:55:16;;;;;;;58.22;52.28;;;;;;;;;;5058521;28;20082;-79
2022/01/22 12:57:42;;;;;;;57.15;51.50;;;;;;;;;;5073516;28;20507;-80
2022/01/22 13:00:14;;;;;;;59.17;53.05;;;;;;;;;;5056551;28;20025;-80
2022/01/22 13:02:43;;;;;;;59.25;52.80;;;;;;;;;;5053768;28;20036;-79
2022/01/22 13:05:09;;;;;;;57.90;51.90;;;;;;;;;;5065441;28;20020;-81
2022/01/22 13:08:03;;;;;;;58.63;52.38;;;;;;;;;;5059716;28;20669;-82
2022/01/22 13:10:36;;;;;;;57.45;51.50;;;;;;;;;;5054358;28;20120;-78
2022/01/22 13:13:01;;;;;;;55.80;50.47;;;;;;;;;;5067231;28;20171;-81
2022/01/22 13:15:27;;;;;;;57.75;51.70;;;;;;;;;;5058128;28;20021;-80
2022/01/22 13:18:00;;;;;;;58.42;52.10;;;;;;;;;;5073049;28;20017;-80
2022/01/22 13:20:27;;;;;;;56.50;51.08;;;;;;;;;;5094939;28;20009;-78
2022/01/22 13:22:54;;;;;;;58.95;52.72;;;;;;;;;;5068821;28;20047;-80
2022/01/22 13:25:19;;;;;;;60.00;53.47;;;;;;;;;;5063248;28;20025;-80
2022/01/22 13:27:58;;;;;;;57.55;51.78;;;;;;;;;;5055420;28;20031;-80
2022/01/22 13:30:35;;;;;;;57.65;51.63;;;;;;;;;;5053001;28;20452;-81
2022/01/22 13:33:13;;;;;;;57.75;51.90;;;;;;;;;;5071169;28;20281;-80
2022/01/22 13:36:01;;;;;;;59.45;52.92;;;;;;;;;;5052756;28;20486;-78
2022/01/22 13:38:51;;;;;;;59.33;53.28;;;;;;;;;;5057541;28;20040;-79
2022/01/22 13:49:29;;;;;;;57.22;51.33;;;;;;;;;;5089649;28;20139;-80
2022/01/22 13:51:54;;;;;;;;;;;;;;;;;;5061856;28;20320;-79
2022/01/22 13:54:25;;;;;;;57.58;51.45;;;;;;;;;;5068400;28;19974;-79
2022/01/22 13:56:58;;;;;;;56.08;50.63;;;;;;;;;;5056644;28;20261;-80
2022/01/22 13:59:24;;;;;;;58.08;52.08;;;;;;;;;;5053231;28;20027;-81
2022/01/22 14:02:06;;;;;;;56.75;50.90;;;;;;;;;;5052802;28;20031;-80
2022/01/22 14:04:38;;;;;;;57.03;51.03;;;;;;;;;;5073876;28;20022;-79
2022/01/22 14:07:13;;;;;;;67.97;55.10;;;;;;;;;;5057982;28;20034;-78
2022/01/22 14:09:38;;;;;;;56.28;50.60;;;;;;;;;;5055789;28;20076;-79
2022/01/22 14:12:03;;;;;;;56.67;50.93;;;;;;;;;;5075636;28;20032;-79
2022/01/22 14:14:31;;;;;;;55.40;49.90;;;;;;;;;;5059106;28;20073;-79
2022/01/22 14:17:10;;;;;;;56.60;50.80;;;;;;;;;;5061544;28;20464;-81
2022/01/22 14:19:35;;;;;;;56.58;50.60;;;;;;;;;;5053931;28;20092;-79
2022/01/22 14:22:01;;;;;;;57.67;51.53;;;;;;;;;;5054533;28;20047;-79
2022/01/22 14:24:30;;;;;;;55.63;49.93;;;;;;;;;;5072772;28;20013;-81
2022/01/22 14:26:55;;;;;;;56.53;50.72;;;;;;;;;;5057595;28;21251;-80
2022/01/22 14:29:20;;;;;;;54.73;49.30;;;;;;;;;;5077857;28;20024;-81
2022/01/22 14:31:59;;;;;;;56.37;50.60;;;;;;;;;;5055921;28;20017;-78
2022/01/22 14:34:42;;;;;;;57.38;51.33;;;;;;;;;;5058819;28;20024;-80
2022/01/22 14:37:08;;;;;;;62.72;53.13;;;;;;;;;;5055563;28;20032;-79
2022/01/22 14:44:00;;;;;;;59.90;51.92;;;;;;;;;;5061991;28;20016;-79
2022/01/22 14:45:19;;;;;;;55.65;50.13;;;;;;;;;;5068074;28;20032;-78
2022/01/22 14:47:50;;;;;;;55.87;50.37;;;;;;;;;;5062436;28;20056;-79
2022/01/22 14:50:16;;;;;;;56.72;50.90;;;;;;;;;;5059007;28;20539;-78
2022/01/22 14:52:41;;;;;;;61.87;53.40;;;;;;;;;;5056280;28;20024;-79
2022/01/22 14:55:10;;;;;;;55.63;50.30;;;;;;;;;;5064817;28;20032;-79
2022/01/22 14:57:36;;;;;;;67.18;55.10;;;;;;;;;;5063709;28;20506;-77
2022/01/22 15:00:07;;;;;;;55.83;50.30;;;;;;;;;;5065219;28;20016;-78
2022/01/22 15:02:32;;;;;;;59.00;52.65;;;;;;;;;;5079533;28;20028;-76
2022/01/22 15:04:58;;;;;;;59.28;52.53;;;;;;;;;;5070328;28;20017;-79
2022/01/22 15:07:23;;;;;;;56.03;50.57;;;;;;;;;;5058326;28;20032;-78
2022/01/22 15:09:49;;;;;;;56.97;51.20;;;;;;;;;;5065348;28;20551;-79
2022/01/22 15:12:16;;;;;;;57.03;51.20;;;;;;;;;;5074757;28;20031;-79
2022/01/22 15:14:41;;;;;;;;;;;;;;;;;;5074244;28;20492;-79
2022/01/22 15:19:32;;;;;;;54.97;49.67;;;;;;;;;;5059514;28;20033;-77
2022/01/22 15:21:57;;;;;;;54.80;49.53;;;;;;;;;;5050813;28;20288;-78
2022/01/22 15:24:22;;;;;;;56.10;50.27;;;;;;;;;;5052235;28;20017;-78
2022/01/22 15:26:48;;;;;;;55.80;50.23;;;;;;;;;;5057899;28;20027;-77
2022/01/22 15:29:15;;;;;;;55.37;49.87;;;;;;;;;;5055515;28;20035;-79
2022/01/22 15:32:06;;;;;;;55.75;50.25;;;;;;;;;;5055686;28;20340;-78
2022/01/22 15:36:57;;;;;;;55.70;50.17;;;;;;;;;;5079079;28;20021;-78
2022/01/22 15:39:24;;;;;;;55.90;50.22;;;;;;;;;;5073987;28;20023;-82
2022/01/22 15:41:50;;;;;;;57.17;51.03;;;;;;;;;;5074891;28;20108;-78
2022/01/22 15:44:16;;;;;;;55.65;49.85;;;;;;;;;;5062563;28;20025;-79
2022/01/22 15:46:44;;;;;;;55.43;49.87;;;;;;;;;;5101338;28;20024;-77
2022/01/22 15:49:14;;;;;;;54.50;49.05;;;;;;;;;;5077317;28;20047;-78
2022/01/22 15:51:40;;;;;;;60.05;52.35;;;;;;;;;;5079280;28;20016;-78
2022/01/22 15:54:05;;;;;;;56.55;50.85;;;;;;;;;;5060237;28;20104;-79
2022/01/22 15:56:30;;;;;;;56.10;50.13;;;;;;;;;;5085325;28;20025;-79
2022/01/22 15:58:55;;;;;;;56.77;50.87;;;;;;;;;;5058276;28;20012;-80
2022/01/22 16:01:21;;;;;;;59.83;51.93;;;;;;;;;;5075403;28;20027;-77
2022/01/22 16:03:54;;;;;;;53.83;48.83;;;;;;;;;;5076372;28;20010;-80
2022/01/22 16:06:19;;;;;;;56.20;50.45;;;;;;;;;;5058934;28;20029;-80
2022/01/22 16:08:46;;;;;;;55.43;49.87;;;;;;;;;;5056574;28;20477;-79
2022/01/22 16:11:11;;;;;;;;;;;;;;;;;;5058814;28;20154;-79